sensor_id;sensor_type;location;lat;lon;timestamp;pressure;altitude;pressure_sealevel;temperature
29701;BMP280;57917;51.380;-0.176;2023-07-30T00:02:51;100609.38;;;17.74
29701;BMP280;57917;51.380;-0.176;2023-07-30T00:08:38;100610.41;;;17.61
29701;BMP280;57917;51.380;-0.176;2023-07-30T00:14:25;100610.03;;;17.71
29701;BMP280;57917;51.380;-0.176;2023-07-30T00:20:17;100615.25;;;17.67
29701;BMP280;57917;51.380;-0.176;2023-07-30T00:26:08;100590.84;;;17.69
29701;BMP280;57917;51.380;-0.176;2023-07-30T00:31:55;100605.19;;;17.85
29701;BMP280;57917;51.380;-0.176;2023-07-30T00:37:42;100597.88;;;17.94
29701;BMP280;57917;51.380;-0.176;2023-07-30T00:43:29;100595.13;;;17.82
29701;BMP280;57917;51.380;-0.176;2023-07-30T00:49:15;100603.09;;;17.90
29701;BMP280;57917;51.380;-0.176;2023-07-30T00:55:03;100595.84;;;17.91
29701;BMP280;57917;51.380;-0.176;2023-07-30T01:00:54;100601.59;;;17.81
29701;BMP280;57917;51.380;-0.176;2023-07-30T01:06:41;100606.06;;;17.77
29701;BMP280;57917;51.380;-0.176;2023-07-30T01:12:30;100603.50;;;18.01
29701;BMP280;57917;51.380;-0.176;2023-07-30T01:18:18;100616.13;;;18.00
29701;BMP280;57917;51.380;-0.176;2023-07-30T01:24:04;100612.91;;;17.86
29701;BMP280;57917;51.380;-0.176;2023-07-30T01:29:55;100630.41;;;17.63
29701;BMP280;57917;51.380;-0.176;2023-07-30T01:35:49;100608.53;;;17.82
29701;BMP280;57917;51.380;-0.176;2023-07-30T01:41:36;100614.19;;;17.60
29701;BMP280;57917;51.380;-0.176;2023-07-30T01:47:23;100619.72;;;17.55
29701;BMP280;57917;51.380;-0.176;2023-07-30T01:53:10;100611.53;;;17.31
29701;BMP280;57917;51.380;-0.176;2023-07-30T01:58:57;100624.09;;;17.39
29701;BMP280;57917;51.380;-0.176;2023-07-30T02:04:44;100624.94;;;17.51
29701;BMP280;57917;51.380;-0.176;2023-07-30T02:10:31;100635.72;;;17.43
29701;BMP280;57917;51.380;-0.176;2023-07-30T02:16:17;100639.13;;;17.52
29701;BMP280;57917;51.380;-0.176;2023-07-30T02:22:04;100625.00;;;17.43
29701;BMP280;57917;51.380;-0.176;2023-07-30T02:27:52;100623.25;;;17.47
29701;BMP280;57917;51.380;-0.176;2023-07-30T02:33:40;100621.13;;;17.61
29701;BMP280;57917;51.380;-0.176;2023-07-30T02:39:26;100620.81;;;17.62
29701;BMP280;57917;51.380;-0.176;2023-07-30T02:45:13;100628.88;;;17.54
29701;BMP280;57917;51.380;-0.176;2023-07-30T02:51:00;100631.16;;;17.43
29701;BMP280;57917;51.380;-0.176;2023-07-30T02:56:47;100627.50;;;17.48
29701;BMP280;57917;51.380;-0.176;2023-07-30T03:02:34;100627.69;;;17.43
29701;BMP280;57917;51.380;-0.176;2023-07-30T03:08:21;100635.72;;;17.43
29701;BMP280;57917;51.380;-0.176;2023-07-30T03:14:08;100628.53;;;17.35
29701;BMP280;57917;51.380;-0.176;2023-07-30T03:19:59;100630.22;;;17.39
29701;BMP280;57917;51.380;-0.176;2023-07-30T03:25:55;100626.28;;;17.37
29701;BMP280;57917;51.380;-0.176;2023-07-30T03:31:46;100627.88;;;17.38
29701;BMP280;57917;51.380;-0.176;2023-07-30T03:37:34;100623.44;;;17.42
29701;BMP280;57917;51.380;-0.176;2023-07-30T03:43:24;100628.34;;;17.11
29701;BMP280;57917;51.380;-0.176;2023-07-30T03:49:15;100621.31;;;17.27
29701;BMP280;57917;51.380;-0.176;2023-07-30T03:55:06;100638.09;;;17.07
29701;BMP280;57917;51.380;-0.176;2023-07-30T04:00:56;100646.28;;;17.02
29701;BMP280;57917;51.380;-0.176;2023-07-30T04:06:43;100648.38;;;16.88
29701;BMP280;57917;51.380;-0.176;2023-07-30T04:12:29;100652.19;;;16.70
29701;BMP280;57917;51.380;-0.176;2023-07-30T04:18:16;100649.84;;;16.60
29701;BMP280;57917;51.380;-0.176;2023-07-30T04:24:03;100659.78;;;16.42
29701;BMP280;57917;51.380;-0.176;2023-07-30T04:29:50;100658.84;;;16.38
29701;BMP280;57917;51.380;-0.176;2023-07-30T04:35:37;100648.78;;;16.44
29701;BMP280;57917;51.380;-0.176;2023-07-30T04:41:24;100666.41;;;16.45
29701;BMP280;57917;51.380;-0.176;2023-07-30T04:47:15;100666.53;;;16.40
29701;BMP280;57917;51.380;-0.176;2023-07-30T04:53:02;100665.72;;;16.48
29701;BMP280;57917;51.380;-0.176;2023-07-30T04:58:49;100674.22;;;16.41
29701;BMP280;57917;51.380;-0.176;2023-07-30T05:04:36;100676.75;;;16.38
29701;BMP280;57917;51.380;-0.176;2023-07-30T05:10:23;100693.84;;;16.88
29701;BMP280;57917;51.380;-0.176;2023-07-30T05:16:09;100683.34;;;18.40
29701;BMP280;57917;51.380;-0.176;2023-07-30T05:21:56;100693.19;;;19.37
29701;BMP280;57917;51.380;-0.176;2023-07-30T05:27:43;100675.00;;;19.98
29701;BMP280;57917;51.380;-0.176;2023-07-30T05:33:29;100671.03;;;20.19
29701;BMP280;57917;51.380;-0.176;2023-07-30T05:39:16;100688.66;;;18.28
29701;BMP280;57917;51.380;-0.176;2023-07-30T05:45:03;100695.41;;;19.11
29701;BMP280;57917;51.380;-0.176;2023-07-30T05:50:50;100698.59;;;18.93
29701;BMP280;57917;51.380;-0.176;2023-07-30T05:56:37;100704.66;;;18.57
29701;BMP280;57917;51.380;-0.176;2023-07-30T06:02:24;100712.13;;;18.84
29701;BMP280;57917;51.380;-0.176;2023-07-30T06:08:11;100718.50;;;18.92
29701;BMP280;57917;51.380;-0.176;2023-07-30T06:13:58;100705.06;;;18.47
29701;BMP280;57917;51.380;-0.176;2023-07-30T06:19:44;100724.47;;;18.03
29701;BMP280;57917;51.380;-0.176;2023-07-30T06:25:31;100738.16;;;18.10
29701;BMP280;57917;51.380;-0.176;2023-07-30T06:31:18;100744.88;;;17.95
29701;BMP280;57917;51.380;-0.176;2023-07-30T06:37:05;100749.53;;;17.78
29701;BMP280;57917;51.380;-0.176;2023-07-30T06:42:52;100751.06;;;18.08
29701;BMP280;57917;51.380;-0.176;2023-07-30T06:48:39;100754.34;;;18.13
29701;BMP280;57917;51.380;-0.176;2023-07-30T06:54:29;100750.63;;;18.47
29701;BMP280;57917;51.380;-0.176;2023-07-30T07:00:17;100761.75;;;18.57
29701;BMP280;57917;51.380;-0.176;2023-07-30T07:06:08;100748.81;;;18.39
29701;BMP280;57917;51.380;-0.176;2023-07-30T07:11:58;100759.94;;;18.29
29701;BMP280;57917;51.380;-0.176;2023-07-30T07:17:45;100765.66;;;18.60
29701;BMP280;57917;51.380;-0.176;2023-07-30T07:23:32;100765.75;;;18.84
29701;BMP280;57917;51.380;-0.176;2023-07-30T07:29:19;100755.88;;;18.76
29701;BMP280;57917;51.380;-0.176;2023-07-30T07:35:06;100746.97;;;18.84
29701;BMP280;57917;51.380;-0.176;2023-07-30T07:40:53;100734.72;;;19.07
29701;BMP280;57917;51.380;-0.176;2023-07-30T07:46:40;100754.44;;;19.11
29701;BMP280;57917;51.380;-0.176;2023-07-30T07:52:28;100755.81;;;19.53
29701;BMP280;57917;51.380;-0.176;2023-07-30T07:58:16;100761.06;;;19.74
29701;BMP280;57917;51.380;-0.176;2023-07-30T08:04:03;100755.78;;;20.56
29701;BMP280;57917;51.380;-0.176;2023-07-30T08:09:50;100747.44;;;20.89
29701;BMP280;57917;51.380;-0.176;2023-07-30T08:15:38;100753.16;;;21.18
29701;BMP280;57917;51.380;-0.176;2023-07-30T08:21:25;100758.81;;;21.29
29701;BMP280;57917;51.380;-0.176;2023-07-30T08:27:11;100758.66;;;21.72
29701;BMP280;57917;51.380;-0.176;2023-07-30T08:32:58;100739.75;;;22.06
29701;BMP280;57917;51.380;-0.176;2023-07-30T08:38:46;100738.44;;;22.58
29701;BMP280;57917;51.380;-0.176;2023-07-30T08:44:32;100732.31;;;22.61
29701;BMP280;57917;51.380;-0.176;2023-07-30T08:50:20;100745.50;;;22.24
29701;BMP280;57917;51.380;-0.176;2023-07-30T08:56:09;100743.53;;;22.85
29701;BMP280;57917;51.380;-0.176;2023-07-30T09:01:55;100744.63;;;22.81
29701;BMP280;57917;51.380;-0.176;2023-07-30T09:07:43;100762.72;;;22.58
29701;BMP280;57917;51.380;-0.176;2023-07-30T09:13:36;100752.91;;;22.69
29701;BMP280;57917;51.380;-0.176;2023-07-30T09:19:23;100750.03;;;23.29
29701;BMP280;57917;51.380;-0.176;2023-07-30T09:25:10;100753.47;;;24.15
29701;BMP280;57917;51.380;-0.176;2023-07-30T09:31:04;100741.50;;;24.16
29701;BMP280;57917;51.380;-0.176;2023-07-30T09:37:07;100744.19;;;24.12
29701;BMP280;57917;51.380;-0.176;2023-07-30T09:42:57;100757.66;;;24.42
29701;BMP280;57917;51.380;-0.176;2023-07-30T09:48:44;100761.50;;;24.88
29701;BMP280;57917;51.380;-0.176;2023-07-30T09:54:32;100755.38;;;24.47
29701;BMP280;57917;51.380;-0.176;2023-07-30T10:00:23;100750.94;;;23.96
29701;BMP280;57917;51.380;-0.176;2023-07-30T10:06:11;100755.00;;;23.53
29701;BMP280;57917;51.380;-0.176;2023-07-30T10:12:02;100773.88;;;23.24
29701;BMP280;57917;51.380;-0.176;2023-07-30T10:17:51;100783.81;;;22.52
29701;BMP280;57917;51.380;-0.176;2023-07-30T10:24:11;100792.28;;;22.32
29701;BMP280;57917;51.380;-0.176;2023-07-30T10:30:16;100781.34;;;22.44
29701;BMP280;57917;51.380;-0.176;2023-07-30T10:36:04;100787.34;;;22.18
29701;BMP280;57917;51.380;-0.176;2023-07-30T10:41:54;100809.28;;;21.97
29701;BMP280;57917;51.380;-0.176;2023-07-30T10:47:41;100798.78;;;21.92
29701;BMP280;57917;51.380;-0.176;2023-07-30T10:53:29;100800.69;;;21.92
29701;BMP280;57917;51.380;-0.176;2023-07-30T10:59:17;100808.19;;;22.18
29701;BMP280;57917;51.380;-0.176;2023-07-30T11:05:12;100803.47;;;22.14
29701;BMP280;57917;51.380;-0.176;2023-07-30T11:10:59;100798.53;;;22.36
29701;BMP280;57917;51.380;-0.176;2023-07-30T11:16:49;100812.00;;;22.17
29701;BMP280;57917;51.380;-0.176;2023-07-30T11:22:36;100820.31;;;21.73
29701;BMP280;57917;51.380;-0.176;2023-07-30T11:28:31;100830.91;;;21.66
29701;BMP280;57917;51.380;-0.176;2023-07-30T11:34:24;100842.56;;;21.55
29701;BMP280;57917;51.380;-0.176;2023-07-30T11:40:13;100831.31;;;20.91
29701;BMP280;57917;51.380;-0.176;2023-07-30T11:46:12;100828.25;;;20.65
29701;BMP280;57917;51.380;-0.176;2023-07-30T11:52:05;100851.59;;;20.21
29701;BMP280;57917;51.380;-0.176;2023-07-30T11:57:54;100848.56;;;20.35
29701;BMP280;57917;51.380;-0.176;2023-07-30T12:03:45;100855.41;;;20.20
29701;BMP280;57917;51.380;-0.176;2023-07-30T12:09:35;100853.03;;;20.19
29701;BMP280;57917;51.380;-0.176;2023-07-30T12:15:22;100858.56;;;20.50
29701;BMP280;57917;51.380;-0.176;2023-07-30T12:21:09;100855.78;;;20.46
29701;BMP280;57917;51.380;-0.176;2023-07-30T12:26:59;100856.97;;;20.61
29701;BMP280;57917;51.380;-0.176;2023-07-30T12:32:47;100855.38;;;20.32
29701;BMP280;57917;51.380;-0.176;2023-07-30T12:38:35;100856.47;;;20.55
29701;BMP280;57917;51.380;-0.176;2023-07-30T12:44:23;100850.56;;;20.26
29701;BMP280;57917;51.380;-0.176;2023-07-30T12:50:10;100853.72;;;19.92
29701;BMP280;57917;51.380;-0.176;2023-07-30T12:55:57;100843.09;;;19.95
29701;BMP280;57917;51.380;-0.176;2023-07-30T13:01:44;100848.34;;;20.16
29701;BMP280;57917;51.380;-0.176;2023-07-30T13:07:34;100844.72;;;20.36
29701;BMP280;57917;51.380;-0.176;2023-07-30T13:13:21;100822.28;;;20.44
29701;BMP280;57917;51.380;-0.176;2023-07-30T13:19:08;100829.31;;;20.48
29701;BMP280;57917;51.380;-0.176;2023-07-30T13:24:55;100812.91;;;20.65
29701;BMP280;57917;51.380;-0.176;2023-07-30T13:30:42;100813.13;;;20.72
29701;BMP280;57917;51.380;-0.176;2023-07-30T13:36:32;100801.84;;;20.82
29701;BMP280;57917;51.380;-0.176;2023-07-30T13:42:18;100799.25;;;20.86
29701;BMP280;57917;51.380;-0.176;2023-07-30T13:48:05;100785.22;;;21.08
29701;BMP280;57917;51.380;-0.176;2023-07-30T13:53:52;100792.53;;;21.38
29701;BMP280;57917;51.380;-0.176;2023-07-30T13:59:39;100794.53;;;21.26
29701;BMP280;57917;51.380;-0.176;2023-07-30T14:05:30;100811.16;;;20.85
29701;BMP280;57917;51.380;-0.176;2023-07-30T14:11:17;100812.28;;;20.84
29701;BMP280;57917;51.380;-0.176;2023-07-30T14:17:04;100822.78;;;20.61
29701;BMP280;57917;51.380;-0.176;2023-07-30T14:22:53;100832.72;;;20.33
29701;BMP280;57917;51.380;-0.176;2023-07-30T14:28:40;100820.34;;;20.29
29701;BMP280;57917;51.380;-0.176;2023-07-30T14:34:28;100802.72;;;20.43
29701;BMP280;57917;51.380;-0.176;2023-07-30T14:40:15;100802.41;;;20.21
29701;BMP280;57917;51.380;-0.176;2023-07-30T14:46:03;100807.00;;;20.20
29701;BMP280;57917;51.380;-0.176;2023-07-30T14:51:49;100795.44;;;20.32
29701;BMP280;57917;51.380;-0.176;2023-07-30T14:57:41;100796.59;;;20.31
29701;BMP280;57917;51.380;-0.176;2023-07-30T15:03:28;100808.91;;;20.20
29701;BMP280;57917;51.380;-0.176;2023-07-30T15:09:15;100806.38;;;19.99
29701;BMP280;57917;51.380;-0.176;2023-07-30T15:15:03;100810.88;;;19.95
29701;BMP280;57917;51.380;-0.176;2023-07-30T15:20:51;100828.34;;;20.01
29701;BMP280;57917;51.380;-0.176;2023-07-30T15:26:37;100828.97;;;19.98
29701;BMP280;57917;51.380;-0.176;2023-07-30T15:32:25;100836.50;;;20.05
29701;BMP280;57917;51.380;-0.176;2023-07-30T15:38:11;100836.16;;;19.82
29701;BMP280;57917;51.380;-0.176;2023-07-30T15:43:58;100843.31;;;19.78
29701;BMP280;57917;51.380;-0.176;2023-07-30T15:49:45;100829.78;;;19.75
29701;BMP280;57917;51.380;-0.176;2023-07-30T15:55:32;100837.06;;;19.74
29701;BMP280;57917;51.380;-0.176;2023-07-30T16:01:20;100835.38;;;19.58
29701;BMP280;57917;51.380;-0.176;2023-07-30T16:07:08;100843.31;;;19.54
29701;BMP280;57917;51.380;-0.176;2023-07-30T16:12:59;100852.38;;;19.62
29701;BMP280;57917;51.380;-0.176;2023-07-30T16:18:47;100841.97;;;19.60
29701;BMP280;57917;51.380;-0.176;2023-07-30T16:24:37;100839.28;;;19.60
29701;BMP280;57917;51.380;-0.176;2023-07-30T16:30:26;100847.34;;;19.60
29701;BMP280;57917;51.380;-0.176;2023-07-30T16:36:13;100836.28;;;19.62
29701;BMP280;57917;51.380;-0.176;2023-07-30T16:42:00;100844.69;;;19.72
29701;BMP280;57917;51.380;-0.176;2023-07-30T16:47:48;100853.19;;;19.74
29701;BMP280;57917;51.380;-0.176;2023-07-30T16:53:35;100846.00;;;19.66
29701;BMP280;57917;51.380;-0.176;2023-07-30T16:59:22;100850.81;;;19.73
29701;BMP280;57917;51.380;-0.176;2023-07-30T17:05:09;100847.13;;;19.65
29701;BMP280;57917;51.380;-0.176;2023-07-30T17:10:57;100849.22;;;19.48
29701;BMP280;57917;51.380;-0.176;2023-07-30T17:16:43;100845.22;;;19.66
29701;BMP280;57917;51.380;-0.176;2023-07-30T17:22:30;100848.34;;;19.56
29701;BMP280;57917;51.380;-0.176;2023-07-30T17:28:18;100845.13;;;19.86
29701;BMP280;57917;51.380;-0.176;2023-07-30T17:34:05;100854.19;;;20.06
29701;BMP280;57917;51.380;-0.176;2023-07-30T17:39:55;100849.56;;;19.94
29701;BMP280;57917;51.380;-0.176;2023-07-30T17:45:42;100839.41;;;20.12
29701;BMP280;57917;51.380;-0.176;2023-07-30T17:51:30;100844.31;;;19.98
29701;BMP280;57917;51.380;-0.176;2023-07-30T17:57:20;100837.06;;;19.74
29701;BMP280;57917;51.380;-0.176;2023-07-30T18:03:59;100848.56;;;19.63
29701;BMP280;57917;51.380;-0.176;2023-07-30T18:09:46;100839.50;;;19.55
29701;BMP280;57917;51.380;-0.176;2023-07-30T18:15:34;100829.66;;;19.59
29701;BMP280;57917;51.380;-0.176;2023-07-30T18:21:25;100846.91;;;19.70
29701;BMP280;57917;51.380;-0.176;2023-07-30T18:27:12;100828.66;;;19.52
29701;BMP280;57917;51.380;-0.176;2023-07-30T18:32:59;100838.16;;;19.37
29701;BMP280;57917;51.380;-0.176;2023-07-30T18:38:53;100842.84;;;19.08
29701;BMP280;57917;51.380;-0.176;2023-07-30T18:44:40;100846.31;;;19.08
29701;BMP280;57917;51.380;-0.176;2023-07-30T18:50:30;100841.34;;;18.98
29701;BMP280;57917;51.380;-0.176;2023-07-30T18:56:24;100833.00;;;19.00
29701;BMP280;57917;51.380;-0.176;2023-07-30T19:02:19;100842.84;;;19.08
29701;BMP280;57917;51.380;-0.176;2023-07-30T19:08:10;100843.22;;;19.06
29701;BMP280;57917;51.380;-0.176;2023-07-30T19:14:03;100830.78;;;19.02
29701;BMP280;57917;51.380;-0.176;2023-07-30T19:20:00;100838.00;;;18.89
29701;BMP280;57917;51.380;-0.176;2023-07-30T19:25:48;100823.81;;;19.01
29701;BMP280;57917;51.380;-0.176;2023-07-30T19:31:37;100822.56;;;18.98
29701;BMP280;57917;51.380;-0.176;2023-07-30T19:37:24;100826.97;;;18.82
29701;BMP280;57917;51.380;-0.176;2023-07-30T19:43:12;100826.94;;;18.70
29701;BMP280;57917;51.380;-0.176;2023-07-30T19:49:00;100833.66;;;18.76
29701;BMP280;57917;51.380;-0.176;2023-07-30T19:54:48;100841.66;;;18.64
29701;BMP280;57917;51.380;-0.176;2023-07-30T20:00:35;100830.72;;;18.69
29701;BMP280;57917;51.380;-0.176;2023-07-30T20:06:22;100843.09;;;18.61
29701;BMP280;57917;51.380;-0.176;2023-07-30T20:12:09;100831.56;;;18.61
29701;BMP280;57917;51.380;-0.176;2023-07-30T20:17:56;100845.59;;;18.46
29701;BMP280;57917;51.380;-0.176;2023-07-30T20:23:43;100844.16;;;18.40
29701;BMP280;57917;51.380;-0.176;2023-07-30T20:29:32;100846.09;;;18.39
29701;BMP280;57917;51.380;-0.176;2023-07-30T20:35:18;100833.31;;;18.36
29701;BMP280;57917;51.380;-0.176;2023-07-30T20:41:05;100845.06;;;18.23
29701;BMP280;57917;51.380;-0.176;2023-07-30T20:46:52;100843.31;;;18.27
29701;BMP280;57917;51.380;-0.176;2023-07-30T20:52:39;100838.63;;;18.24
29701;BMP280;57917;51.380;-0.176;2023-07-30T20:58:26;100827.22;;;18.27
29701;BMP280;57917;51.380;-0.176;2023-07-30T21:04:13;100807.09;;;18.21
29701;BMP280;57917;51.380;-0.176;2023-07-30T21:10:00;100803.19;;;18.19
29701;BMP280;57917;51.380;-0.176;2023-07-30T21:15:47;100798.31;;;18.21
29701;BMP280;57917;51.380;-0.176;2023-07-30T21:21:35;100789.31;;;18.17
29701;BMP280;57917;51.380;-0.176;2023-07-30T21:27:22;100794.16;;;18.23
29701;BMP280;57917;51.380;-0.176;2023-07-30T21:33:17;100790.13;;;18.38
29701;BMP280;57917;51.380;-0.176;2023-07-30T21:39:08;100776.50;;;18.22
29701;BMP280;57917;51.380;-0.176;2023-07-30T21:44:55;100791.16;;;18.04
29701;BMP280;57917;51.380;-0.176;2023-07-30T21:50:42;100781.41;;;18.00
29701;BMP280;57917;51.380;-0.176;2023-07-30T21:56:34;100785.84;;;18.16
29701;BMP280;57917;51.380;-0.176;2023-07-30T22:02:23;100769.28;;;17.94
29701;BMP280;57917;51.380;-0.176;2023-07-30T22:08:11;100747.97;;;18.06
29701;BMP280;57917;51.380;-0.176;2023-07-30T22:13:59;100751.41;;;17.86
29701;BMP280;57917;51.380;-0.176;2023-07-30T22:19:46;100733.13;;;17.79
29701;BMP280;57917;51.380;-0.176;2023-07-30T22:25:33;100727.69;;;17.96
29701;BMP280;57917;51.380;-0.176;2023-07-30T22:31:20;100720.59;;;18.00
29701;BMP280;57917;51.380;-0.176;2023-07-30T22:37:07;100718.19;;;17.99
29701;BMP280;57917;51.380;-0.176;2023-07-30T22:42:55;100706.84;;;17.81
29701;BMP280;57917;51.380;-0.176;2023-07-30T22:48:42;100715.03;;;17.76
29701;BMP280;57917;51.380;-0.176;2023-07-30T22:54:31;100707.84;;;17.97
29701;BMP280;57917;51.380;-0.176;2023-07-30T23:00:18;100698.47;;;18.03
29701;BMP280;57917;51.380;-0.176;2023-07-30T23:06:05;100687.63;;;18.00
29701;BMP280;57917;51.380;-0.176;2023-07-30T23:11:52;100677.00;;;17.91
29701;BMP280;57917;51.380;-0.176;2023-07-30T23:17:40;100675.34;;;17.99
29701;BMP280;57917;51.380;-0.176;2023-07-30T23:23:27;100680.06;;;18.02
29701;BMP280;57917;51.380;-0.176;2023-07-30T23:29:14;100651.63;;;18.09
29701;BMP280;57917;51.380;-0.176;2023-07-30T23:35:05;100654.41;;;18.13
29701;BMP280;57917;51.380;-0.176;2023-07-30T23:40:53;100653.66;;;18.12
29701;BMP280;57917;51.380;-0.176;2023-07-30T23:46:40;100657.84;;;18.01
29701;BMP280;57917;51.380;-0.176;2023-07-30T23:52:27;100656.81;;;17.94
29701;BMP280;57917;51.380;-0.176;2023-07-30T23:58:14;100657.88;;;17.93
